Wykoff, MN

11:35 PM CDT on July 24, 2014 (GMT -0500)
Preston (KFKA) Elev 1276 ft | 43.68 °N, 92.17 °W | Change Station

Current weather conditions updated 24 minutes ago

Clear
Clear
65 °F
Feels Like 65 °F
N
0
Wind Variable Wind from North

Tomorrow is forecast to be Warmer than today. Rain in the morning.

Today
High -- | Low -- °F
--% Chance of Precip.
Yesterday
High -- | Low -- °F
Precip. -- in
5:49 AM 8:40 PM
Waning Crescent, 3% visible
Pressure 30.03 in
Visibility 10.0 miles
Clouds Clear
Dew Point 62 °F
Humidity 90%
Rainfall 0.00 in
Snow Depth Not available.
UV 0 out of 12
Pollen 6.20 out of 12
Air Quality Not available.
Flu Activity Not available.
METAR KFKA 250411Z AUTO 00000KT 10SM CLR 19/17 A3003 RMK AO2 T01850168

More Conditions Fewer Conditions

Pressure 30.03 in
Visibility 10.0 miles
Clouds Clear
Dew Point 62 °F
Humidity 90%
Rainfall 0.00 in
Snow Depth Not available.
UV 0 out of 12
Pollen 6.20 out of 12
Air Quality Not available.
Flu Activity Not available.
METAR KFKA 250411Z AUTO 00000KT 10SM CLR 19/17 A3003 RMK AO2 T01850168

More Conditions Fewer Conditions

10-Day Weather Forecast

Almanac

Astronomy

Jul. 24, 2014 Rise Set
Actual Time 5:49 AM CDT 8:40 PM CDT
Civil Twilight 5:15 AM CDT 9:14 PM CDT
Nautical Twilight 4:33 AM CDT 9:57 PM CDT
Astronomical Twilight 3:43 AM CDT 10:46 PM CDT
Moon 3:58 AM CDT (7/24) 6:55 PM CDT (7/24)
Length of Visible Light 15h 58m
Length of Day
14h 51m
Tomorrow will be 2m 1s shorter.
Waning Crescent, 3% of the Moon is Illuminated
Jul 25
Waning Crescent
Jul 26
New
Aug 3
First Quarter
Aug 10
Full
Aug 17
Last Quarter

Yesterday's Extremes

State Highs State Lows

Community

WunderPhotos

Upload Photos

1,737,244 photos uploaded!

Nearby

Snow Depth

Station Depth Elevation
No new snow has been reported.

Earthquake Activity

City Distance Mag. Time & Date
No recent earthquake activity has been reported nearby.
Minimum magnitude displayed is 2.5.

Coastal Water Temperatures

Place Temperature
No Stations Reporting

Nearby Weather Stations

Station Location Temp. Dew Point Humidity Wind Precip. Elev Updated Type
Stewartville, MN 62.6 °F 59 °F 87% South  at  0.0 mph 0.00 in / hr 1253 ft 11:30 PM CDT Normal
Steve's Weather Station, Grand Meadow, MN 60.4 °F 55 °F 81% SSW  at  0.0 mph 0.00 in / hr 1296 ft 11:31 PM CDT Normal
Britt Lane Rochester, MN, Rochester, MN 65.5 °F 39 °F 38% WSW  at  0.0 mph 0.00 in / hr 1099 ft 11:33 PM CDT Normal
Quarry Hill Nature Center, Rochester, MN 62.0 °F 60 °F 92% SSE  at  0.0 mph 0.00 in / hr 1020 ft 11:35 PM CDT Rapid Fire
APRSWXNET - Parkwood Hills, Rochester, MN 66.8 °F 60 °F 79% South  at  2.0 mph 0.00 in / hr 1220 ft 11:32 PM CDT Normal

Show More Stations Show Fewer Stations